Time;durP1;ratioP1;P1;durP2;ratioP2;P2;SDS_P1;SDS_P2;PMS_P1;PMS_P2;Temp;Humidity;BMP_temperature;BMP_pressure;BME280_temperature;BME280_humidity;BME280_pressure;Samples;Min_cycle;Max_cycle;Signal;HPM_P1;HPM_P2
2023/05/06 00:01:35;;;;;;;;;;;14.70;74.90;;;;;;5068985;28;19916;-76
2023/05/06 00:04:01;;;;;;;;;;;14.80;74.30;;;;;;5067953;28;19916;-76
2023/05/06 00:06:28;;;;;;;;;;;14.80;74.10;;;;;;5068567;28;20042;-76
2023/05/06 00:08:55;;;;;;;;;;;14.80;73.90;;;;;;5065993;28;19981;-74
2023/05/06 00:11:22;;;;;;;;;;;14.80;73.60;;;;;;5064111;28;20007;-79
2023/05/06 00:13:48;;;;;;;;;;;14.90;73.30;;;;;;5072703;28;20343;-78
2023/05/06 00:16:15;;;;;;;;;;;14.90;73.10;;;;;;5055967;28;19981;-78
2023/05/06 00:18:42;;;;;;;;;;;15.00;73.20;;;;;;5068123;28;19923;-79
2023/05/06 00:21:09;;;;;;;;;;;15.00;72.90;;;;;;5072269;28;20304;-72
2023/05/06 00:23:36;;;;;;;;;;;15.00;72.70;;;;;;5073573;28;20002;-80
2023/05/06 00:26:02;;;;;;;;;;;15.20;72.50;;;;;;5059491;28;19956;-79
2023/05/06 00:28:29;;;;;;;;;;;15.20;72.00;;;;;;5067492;28;19963;-79
2023/05/06 00:30:56;;;;;;;;;;;15.20;71.60;;;;;;5075330;28;19916;-78
2023/05/06 00:33:23;;;;;;;;;;;15.20;71.60;;;;;;5052753;28;20054;-78
2023/05/06 00:35:51;;;;;;;;;;;15.30;71.50;;;;;;5054682;28;20335;-74
2023/05/06 00:38:18;;;;;;;;;;;15.30;71.60;;;;;;5062517;28;19912;-77
2023/05/06 00:40:45;;;;;;;;;;;15.30;71.50;;;;;;5071713;28;19916;-75
2023/05/06 00:43:12;;;;;;;;;;;15.40;71.10;;;;;;5063414;28;19917;-78
2023/05/06 00:45:39;;;;;;;;;;;15.50;70.70;;;;;;5054456;28;19966;-78
2023/05/06 00:48:06;;;;;;;;;;;15.40;69.70;;;;;;5089200;28;19916;-77
2023/05/06 00:50:33;;;;;;;;;;;15.50;69.50;;;;;;5065691;28;19916;-76
2023/05/06 00:53:00;;;;;;;;;;;15.60;68.90;;;;;;5072591;28;19912;-76
2023/05/06 00:55:26;;;;;;;;;;;15.70;68.30;;;;;;5077777;28;19924;-75
2023/05/06 00:57:53;;;;;;;;;;;15.70;67.50;;;;;;5080621;28;19912;-75
2023/05/06 01:00:20;;;;;;;;;;;15.70;66.10;;;;;;5082225;28;19916;-75
2023/05/06 01:02:47;;;;;;;;;;;15.70;64.80;;;;;;5057066;28;19971;-74
2023/05/06 01:05:15;;;;;;;;;;;15.70;64.70;;;;;;5049411;28;19924;-75
2023/05/06 07:28:45;;;;;;;;;;;17.30;63.20;;;;;;5074727;28;19935;-71
2023/05/06 07:31:11;;;;;;;;;;;17.30;63.70;;;;;;5092373;28;19943;-71
2023/05/06 07:33:38;;;;;;;;;;;17.30;63.60;;;;;;5091129;28;20331;-71
2023/05/06 07:36:05;;;;;;;;;;;17.30;64.40;;;;;;5092503;28;19916;-72
2023/05/06 07:38:31;;;;;;;;;;;17.20;64.60;;;;;;5091813;28;20282;-71
2023/05/06 07:40:58;;;;;;;;;;;17.20;64.80;;;;;;5092575;28;19912;-72
2023/05/06 07:43:25;;;;;;;;;;;17.20;64.90;;;;;;5092672;28;20399;-71
2023/05/06 07:45:57;;;;;;;;;;;17.10;64.80;;;;;;5092283;28;19908;-72
2023/05/06 07:48:24;;;;;;;;;;;17.20;65.00;;;;;;5091491;28;19914;-72
2023/05/06 07:50:51;;;;;;;;;;;17.10;65.10;;;;;;5092279;28;20358;-72
2023/05/06 07:53:17;;;;;;;;;;;17.10;65.20;;;;;;5088913;28;19951;-73
2023/05/06 07:55:44;;;;;;;;;;;17.10;65.10;;;;;;5089210;28;19975;-73
2023/05/06 07:58:11;;;;;;;;;;;17.10;65.50;;;;;;5089181;28;19919;-74
2023/05/06 08:00:38;;;;;;;;;;;17.10;65.70;;;;;;5089252;28;19921;-72
2023/05/06 08:03:05;;;;;;;;;;;17.10;65.80;;;;;;5103230;28;19938;-74
2023/05/06 08:05:32;;;;;;;;;;;17.10;66.20;;;;;;5070855;28;19970;-72
2023/05/06 08:07:59;;;;;;;;;;;17.10;66.60;;;;;;5085996;28;20016;-73
2023/05/06 08:10:25;;;;;;;;;;;17.10;66.30;;;;;;5100161;28;19958;-72
2023/05/06 08:12:52;;;;;;;;;;;17.10;66.50;;;;;;5080030;28;19957;-72
2023/05/06 08:15:19;;;;;;;;;;;17.00;66.80;;;;;;5068218;28;20366;-73
2023/05/06 08:17:46;;;;;;;;;;;17.00;67.10;;;;;;5086345;28;19951;-70
2023/05/06 08:20:13;;;;;;;;;;;17.00;67.10;;;;;;5088501;28;19947;-69
2023/05/06 08:22:39;;;;;;;;;;;17.00;67.10;;;;;;5067830;28;19916;-71
2023/05/06 08:25:06;;;;;;;;;;;17.00;67.10;;;;;;5086679;28;19922;-69
2023/05/06 08:27:33;;;;;;;;;;;17.00;67.50;;;;;;5070972;28;20382;-72
2023/05/06 08:30:00;;;;;;;;;;;16.90;67.80;;;;;;5065018;28;20032;-72
2023/05/06 08:32:26;;;;;;;;;;;16.90;67.90;;;;;;5041975;28;19956;-72
2023/05/06 08:34:53;;;;;;;;;;;16.80;68.10;;;;;;5037379;28;20185;-72
2023/05/06 08:37:20;;;;;;;;;;;16.80;68.30;;;;;;5066948;28;19919;-70
2023/05/06 08:39:46;;;;;;;;;;;16.80;68.40;;;;;;5055023;28;19920;-71
2023/05/06 08:42:13;;;;;;;;;;;16.70;68.50;;;;;;5044736;28;19925;-71
2023/05/06 08:44:40;;;;;;;;;;;16.70;68.20;;;;;;5043288;28;19915;-71
2023/05/06 08:47:06;;;;;;;;;;;16.70;68.50;;;;;;5067253;28;19923;-71
2023/05/06 08:49:33;;;;;;;;;;;16.70;68.90;;;;;;5053940;28;19966;-72
2023/05/06 08:52:00;;;;;;;;;;;16.70;69.10;;;;;;5052522;28;19925;-73
2023/05/06 08:54:27;;;;;;;;;;;16.60;69.30;;;;;;5067113;28;20336;-72
2023/05/06 08:56:54;;;;;;;;;;;16.60;69.50;;;;;;5067756;28;20303;-74
2023/05/06 12:21:09;;;;;;;;;;;14.80;81.00;;;;;;5075402;28;19951;-78
2023/05/06 12:23:35;;;;;;;;;;;14.80;81.30;;;;;;5094645;28;20297;-75
2023/05/06 12:26:03;;;;;;;;;;;14.80;81.50;;;;;;5107514;28;19912;-73
2023/05/06 12:28:30;;;;;;;;;;;14.90;81.90;;;;;;5087052;28;19916;-74
2023/05/06 12:30:57;;;;;;;;;;;14.90;82.30;;;;;;5069632;28;19912;-74
2023/05/06 12:33:23;;;;;;;;;;;14.90;82.40;;;;;;5091919;28;20271;-75
2023/05/06 12:35:51;;;;;;;;;;;14.90;82.70;;;;;;5095472;28;19931;-74
2023/05/06 12:38:18;;;;;;;;;;;14.80;82.60;;;;;;5092299;28;19919;-71
2023/05/06 12:40:45;;;;;;;;;;;14.80;82.90;;;;;;5095995;28;20031;-73
2023/05/06 12:43:12;;;;;;;;;;;14.80;82.90;;;;;;5072979;28;20566;-72
2023/05/06 12:45:38;;;;;;;;;;;14.80;82.90;;;;;;5093827;28;19915;-76
2023/05/06 12:48:05;;;;;;;;;;;14.70;83.00;;;;;;5092149;28;20010;-75
2023/05/06 12:50:36;;;;;;;;;;;14.70;83.10;;;;;;5088940;28;19931;-72
2023/05/06 12:53:03;;;;;;;;;;;14.70;83.20;;;;;;5069267;28;19959;-72
2023/05/06 12:55:33;;;;;;;;;;;14.70;83.10;;;;;;5090836;28;19927;-75
2023/05/06 12:57:59;;;;;;;;;;;14.70;83.30;;;;;;5090126;28;20018;-75
2023/05/06 13:00:26;;;;;;;;;;;14.60;83.30;;;;;;5094558;28;19958;-73
2023/05/06 13:02:53;;;;;;;;;;;14.60;83.00;;;;;;5091640;28;19908;-73
2023/05/06 13:05:20;;;;;;;;;;;14.50;82.90;;;;;;5073550;28;20282;-79
2023/05/06 13:07:47;;;;;;;;;;;14.50;83.00;;;;;;5093279;28;19908;-72
2023/05/06 13:10:14;;;;;;;;;;;14.50;83.00;;;;;;5093399;28;19920;-74
2023/05/06 13:12:40;;;;;;;;;;;14.50;83.10;;;;;;5087015;28;20332;-74
2023/05/06 13:15:08;;;;;;;;;;;14.50;83.00;;;;;;5093630;28;19916;-75
2023/05/06 13:17:34;;;;;;;;;;;14.50;83.10;;;;;;5089911;28;19920;-72
2023/05/06 13:20:01;;;;;;;;;;;14.50;83.10;;;;;;5074238;28;19912;-74
2023/05/06 13:22:28;;;;;;;;;;;14.50;82.80;;;;;;5088378;28;19920;-72
2023/05/06 13:24:55;;;;;;;;;;;14.50;82.80;;;;;;5088404;28;19916;-73
2023/05/06 13:27:21;;;;;;;;;;;14.50;82.60;;;;;;5094215;28;19982;-73
2023/05/06 13:29:48;;;;;;;;;;;14.50;82.50;;;;;;5088075;28;19939;-74
2023/05/06 13:32:15;;;;;;;;;;;14.50;82.60;;;;;;5089477;28;19912;-75
2023/05/06 13:34:42;;;;;;;;;;;14.40;82.50;;;;;;5093709;28;20013;-72
2023/05/06 13:37:08;;;;;;;;;;;14.40;82.10;;;;;;5093643;28;19917;-73
2023/05/06 13:39:35;;;;;;;;;;;14.40;82.20;;;;;;5092904;28;19908;-73
2023/05/06 13:42:02;;;;;;;;;;;14.40;82.40;;;;;;5093891;28;19991;-73
2023/05/06 13:44:29;;;;;;;;;;;14.30;82.50;;;;;;5093901;28;19920;-73
2023/05/06 13:46:56;;;;;;;;;;;14.30;82.70;;;;;;5074089;28;19911;-72
2023/05/06 13:49:22;;;;;;;;;;;14.20;82.80;;;;;;5094003;28;19926;-75
2023/05/06 13:51:49;;;;;;;;;;;14.30;82.90;;;;;;5098125;28;19919;-74
2023/05/06 13:54:16;;;;;;;;;;;14.20;82.70;;;;;;5095297;28;19919;-75
2023/05/06 13:56:43;;;;;;;;;;;14.20;82.80;;;;;;5094937;28;20329;-74
2023/05/06 13:59:12;;;;;;;;;;;14.20;83.00;;;;;;5092666;28;21010;-74
2023/05/06 14:01:39;;;;;;;;;;;14.20;82.80;;;;;;5094370;28;19908;-74
2023/05/06 14:04:05;;;;;;;;;;;14.20;82.70;;;;;;5093153;28;19991;-72
2023/05/06 14:06:32;;;;;;;;;;;14.20;82.70;;;;;;5093313;28;19965;-73
2023/05/06 14:08:59;;;;;;;;;;;14.20;82.70;;;;;;5094036;28;19920;-72
2023/05/06 14:11:26;;;;;;;;;;;14.10;82.70;;;;;;5093734;28;19912;-72
2023/05/06 14:13:52;;;;;;;;;;;14.10;82.90;;;;;;5093294;28;20373;-72
2023/05/06 14:16:19;;;;;;;;;;;14.10;83.00;;;;;;5075028;28;19930;-72
2023/05/06 14:18:46;;;;;;;;;;;14.10;83.00;;;;;;5094615;28;19908;-72
2023/05/06 14:21:12;;;;;;;;;;;14.10;82.80;;;;;;5095491;28;19920;-73
2023/05/06 14:23:39;;;;;;;;;;;14.10;82.70;;;;;;5094544;28;19912;-73
2023/05/06 14:26:06;;;;;;;;;;;14.00;82.90;;;;;;5111811;28;19947;-72
2023/05/06 14:28:32;;;;;;;;;;;14.00;83.00;;;;;;5113043;28;20366;-73
2023/05/06 14:30:59;;;;;;;;;;;14.00;82.90;;;;;;5111659;28;19908;-72
2023/05/06 14:33:26;;;;;;;;;;;13.90;83.00;;;;;;5073310;28;19908;-73
2023/05/06 14:35:53;;;;;;;;;;;13.80;82.90;;;;;;5080689;28;20369;-73
2023/05/06 14:38:19;;;;;;;;;;;13.80;83.10;;;;;;5107288;28;20282;-73
2023/05/06 14:40:46;;;;;;;;;;;13.80;82.90;;;;;;5114294;28;20300;-73
2023/05/06 14:43:13;;;;;;;;;;;13.80;83.00;;;;;;5107014;28;19911;-72
2023/05/06 14:45:40;;;;;;;;;;;13.70;83.10;;;;;;5112162;28;20251;-73
2023/05/06 14:48:06;;;;;;;;;;;13.70;83.80;;;;;;5112468;28;19912;-72
2023/05/06 14:50:33;;;;;;;;;;;13.70;83.80;;;;;;5111368;28;19923;-73
2023/05/06 14:53:00;;;;;;;;;;;13.60;83.80;;;;;;5110914;28;19998;-73
2023/05/06 14:55:27;;;;;;;;;;;13.60;83.70;;;;;;5112558;28;20285;-73
2023/05/06 14:57:53;;;;;;;;;;;13.60;83.70;;;;;;5113539;28;20002;-73
2023/05/06 15:00:20;;;;;;;;;;;13.60;83.90;;;;;;5109788;28;19911;-73
2023/05/06 15:02:47;;;;;;;;;;;13.60;83.40;;;;;;5101200;28;19946;-73
2023/05/06 15:05:14;;;;;;;;;;;13.60;83.50;;;;;;5098178;28;20381;-73
2023/05/06 15:07:41;;;;;;;;;;;13.50;83.40;;;;;;5110307;28;19947;-73
2023/05/06 15:10:07;;;;;;;;;;;13.50;83.50;;;;;;5095652;28;19908;-73
2023/05/06 15:12:35;;;;;;;;;;;13.40;83.50;;;;;;5104585;28;19912;-73
2023/05/06 15:15:03;;;;;;;;;;;13.40;83.50;;;;;;5074672;28;19970;-73
2023/05/06 15:17:30;;;;;;;;;;;13.40;83.40;;;;;;5112933;28;20434;-73
2023/05/06 15:19:57;;;;;;;;;;;13.40;83.00;;;;;;5113088;28;19908;-73
2023/05/06 15:22:23;;;;;;;;;;;13.40;82.80;;;;;;5111453;28;19916;-72
2023/05/06 15:24:50;;;;;;;;;;;13.50;82.60;;;;;;5100708;28;19911;-72
2023/05/06 15:27:17;;;;;;;;;;;13.50;82.40;;;;;;5113372;28;19912;-72
2023/05/06 15:29:44;;;;;;;;;;;13.50;82.20;;;;;;5111800;28;19923;-72
2023/05/06 15:32:10;;;;;;;;;;;13.40;82.20;;;;;;5103131;28;19915;-72
2023/05/06 15:34:37;;;;;;;;;;;13.50;82.20;;;;;;5106272;28;19923;-72
2023/05/06 15:37:04;;;;;;;;;;;13.40;81.90;;;;;;5107872;28;20293;-72
2023/05/06 15:39:35;;;;;;;;;;;13.40;81.90;;;;;;5106032;28;19913;-73
2023/05/06 15:42:02;;;;;;;;;;;13.40;82.00;;;;;;5111035;28;19958;-73
2023/05/06 15:44:29;;;;;;;;;;;13.40;82.00;;;;;;5106762;28;19915;-73
2023/05/06 15:46:56;;;;;;;;;;;13.30;82.00;;;;;;5108107;28;19915;-73
2023/05/06 15:49:23;;;;;;;;;;;13.30;82.50;;;;;;5106133;28;19919;-73
2023/05/06 15:51:50;;;;;;;;;;;13.30;82.30;;;;;;5101263;28;19912;-73
2023/05/06 15:54:19;;;;;;;;;;;13.20;82.60;;;;;;5091367;28;19920;-73
2023/05/06 15:56:49;;;;;;;;;;;13.20;82.30;;;;;;5112083;28;20624;-73
2023/05/06 15:59:16;;;;;;;;;;;13.20;82.30;;;;;;5107568;28;19934;-72
2023/05/06 16:01:44;;;;;;;;;;;13.20;82.10;;;;;;5110565;28;19916;-73
2023/05/06 16:04:11;;;;;;;;;;;13.20;82.50;;;;;;5106468;28;20362;-73
2023/05/06 16:06:38;;;;;;;;;;;13.10;82.50;;;;;;5112537;28;19907;-73
2023/05/06 16:09:04;;;;;;;;;;;13.10;82.60;;;;;;5109119;28;20651;-73
2023/05/06 16:11:31;;;;;;;;;;;13.20;83.30;;;;;;5108028;28;19918;-73
2023/05/06 16:13:58;;;;;;;;;;;13.10;83.10;;;;;;5109751;28;19915;-73
2023/05/06 16:16:25;;;;;;;;;;;13.00;82.90;;;;;;5095237;28;19926;-73
2023/05/06 16:18:51;;;;;;;;;;;13.00;83.10;;;;;;5095814;28;19935;-73
2023/05/06 16:21:18;;;;;;;;;;;13.10;82.90;;;;;;5109512;28;20283;-74
2023/05/06 16:23:45;;;;;;;;;;;13.00;82.60;;;;;;5110901;28;19912;-74
2023/05/06 16:26:13;;;;;;;;;;;13.00;82.80;;;;;;5095650;28;19912;-74
2023/05/06 16:28:40;;;;;;;;;;;12.90;82.80;;;;;;5091072;28;19935;-73
2023/05/06 16:31:07;;;;;;;;;;;13.00;82.60;;;;;;5093479;28;19923;-73
2023/05/06 16:33:33;;;;;;;;;;;13.00;82.80;;;;;;5090129;28;19931;-72
2023/05/06 16:36:00;;;;;;;;;;;12.90;82.70;;;;;;5094599;28;19927;-73
2023/05/06 16:38:27;;;;;;;;;;;12.90;82.60;;;;;;5112086;28;19953;-73
2023/05/06 16:40:53;;;;;;;;;;;12.90;82.50;;;;;;5105583;28;20339;-72
2023/05/06 16:43:20;;;;;;;;;;;13.00;82.90;;;;;;5091412;28;19990;-73
2023/05/06 16:45:47;;;;;;;;;;;12.90;82.60;;;;;;5091175;28;19916;-73
2023/05/06 16:48:14;;;;;;;;;;;12.80;82.90;;;;;;5097092;28;20366;-72
2023/05/06 16:50:41;;;;;;;;;;;12.80;82.90;;;;;;5102640;28;19920;-73
2023/05/06 16:53:07;;;;;;;;;;;12.80;82.40;;;;;;5099932;28;19912;-73
2023/05/06 16:55:34;;;;;;;;;;;12.90;83.00;;;;;;5112016;28;20285;-73
2023/05/06 16:58:02;;;;;;;;;;;12.90;82.50;;;;;;5110378;28;19922;-73
2023/05/06 17:00:29;;;;;;;;;;;12.80;82.50;;;;;;5111080;28;19957;-73
2023/05/06 17:02:55;;;;;;;;;;;12.70;82.70;;;;;;5078663;28;19919;-73
2023/05/06 17:05:23;;;;;;;;;;;12.70;82.80;;;;;;5077645;28;20274;-73
2023/05/06 17:07:49;;;;;;;;;;;12.70;82.80;;;;;;5095414;28;20370;-73
2023/05/06 17:10:16;;;;;;;;;;;12.70;83.00;;;;;;5095812;28;20050;-73
2023/05/06 17:12:43;;;;;;;;;;;12.60;82.80;;;;;;5097221;28;19912;-73
2023/05/06 17:15:10;;;;;;;;;;;12.70;82.80;;;;;;5095634;28;20357;-72
2023/05/06 17:17:37;;;;;;;;;;;12.70;83.00;;;;;;5109429;28;19919;-74
2023/05/06 17:20:04;;;;;;;;;;;12.70;83.30;;;;;;5107894;28;19916;-74
2023/05/06 17:22:30;;;;;;;;;;;12.70;82.70;;;;;;5102291;28;19970;-73
2023/05/06 17:24:58;;;;;;;;;;;12.70;83.20;;;;;;5111222;28;20038;-74
2023/05/06 17:27:24;;;;;;;;;;;12.60;83.40;;;;;;5115554;28;19912;-73
2023/05/06 17:29:51;;;;;;;;;;;12.60;83.20;;;;;;5115329;28;19908;-73
2023/05/06 17:32:18;;;;;;;;;;;12.60;83.30;;;;;;5101959;28;20003;-74
2023/05/06 17:34:45;;;;;;;;;;;12.50;83.00;;;;;;5109896;28;19911;-73
2023/05/06 17:37:12;;;;;;;;;;;12.50;83.30;;;;;;5115060;28;19908;-73
2023/05/06 17:39:38;;;;;;;;;;;12.50;83.00;;;;;;5104885;28;19912;-74
2023/05/06 17:42:05;;;;;;;;;;;12.40;83.30;;;;;;5097314;28;19912;-74
2023/05/06 17:44:34;;;;;;;;;;;12.30;83.40;;;;;;5113770;28;19919;-74
2023/05/06 17:47:00;;;;;;;;;;;12.40;83.80;;;;;;5114993;28;19915;-74
2023/05/06 17:49:27;;;;;;;;;;;12.30;83.60;;;;;;5091519;28;19974;-75
2023/05/06 17:51:55;;;;;;;;;;;12.30;83.60;;;;;;5093920;28;19912;-74
2023/05/06 17:54:22;;;;;;;;;;;12.30;83.70;;;;;;5088377;28;20341;-75
2023/05/06 17:56:52;;;;;;;;;;;12.30;83.30;;;;;;5094356;28;20003;-75
2023/05/06 17:59:22;;;;;;;;;;;12.30;83.70;;;;;;5099041;28;19912;-74
2023/05/06 18:01:49;;;;;;;;;;;12.40;83.70;;;;;;5114820;28;19915;-74
2023/05/06 18:04:16;;;;;;;;;;;12.30;83.50;;;;;;5110297;28;20423;-73
2023/05/06 18:06:43;;;;;;;;;;;12.30;83.80;;;;;;5108056;28;19912;-75
2023/05/06 18:09:10;;;;;;;;;;;12.30;83.50;;;;;;5077433;28;20239;-75
2023/05/06 18:11:37;;;;;;;;;;;12.30;83.50;;;;;;5111972;28;20404;-75
2023/05/06 18:14:04;;;;;;;;;;;12.20;83.60;;;;;;5112791;28;20362;-75
2023/05/06 18:16:31;;;;;;;;;;;12.30;83.50;;;;;;5092170;28;20329;-76
2023/05/06 18:19:01;;;;;;;;;;;12.30;83.70;;;;;;5108569;28;20308;-75
2023/05/06 18:21:28;;;;;;;;;;;12.30;83.60;;;;;;5091546;28;20364;-75
2023/05/06 18:23:54;;;;;;;;;;;12.30;83.50;;;;;;5104914;28;20278;-75
2023/05/06 18:26:21;;;;;;;;;;;12.30;83.30;;;;;;5114363;28;19947;-75
2023/05/06 18:28:48;;;;;;;;;;;12.30;82.90;;;;;;5111774;28;20349;-75
2023/05/06 18:31:14;;;;;;;;;;;12.40;82.80;;;;;;5101238;28;19912;-75
2023/05/06 18:33:41;;;;;;;;;;;12.40;82.50;;;;;;5109111;28;19911;-75
2023/05/06 18:36:10;;;;;;;;;;;12.30;82.00;;;;;;5092777;28;20065;-75
2023/05/06 18:38:36;;;;;;;;;;;12.40;81.90;;;;;;5093508;28;20294;-75
2023/05/06 18:41:03;;;;;;;;;;;12.40;81.50;;;;;;5106225;28;19916;-75
2023/05/06 18:43:30;;;;;;;;;;;12.40;81.30;;;;;;5105314;28;19978;-75
2023/05/06 18:45:57;;;;;;;;;;;12.40;80.60;;;;;;5089753;28;19985;-72
2023/05/06 18:48:23;;;;;;;;;;;12.40;80.70;;;;;;5094241;28;19995;-73
2023/05/06 18:50:52;;;;;;;;;;;12.30;81.10;;;;;;5111818;28;19920;-74
2023/05/06 18:53:20;;;;;;;;;;;12.30;80.80;;;;;;5090381;28;19924;-74
2023/05/06 18:55:46;;;;;;;;;;;12.30;80.60;;;;;;5095675;28;19977;-75
2023/05/06 18:58:15;;;;;;;;;;;12.30;80.80;;;;;;5090693;28;19916;-77
2023/05/06 19:00:41;;;;;;;;;;;12.20;80.40;;;;;;5090600;28;19919;-77
2023/05/06 19:03:08;;;;;;;;;;;12.20;80.30;;;;;;5098969;28;19916;-76
2023/05/06 19:05:36;;;;;;;;;;;12.20;80.60;;;;;;5101175;28;19926;-76
2023/05/06 19:08:04;;;;;;;;;;;12.20;80.50;;;;;;5093675;28;20464;-76
2023/05/06 19:10:30;;;;;;;;;;;12.20;80.20;;;;;;5082568;28;19923;-78
2023/05/06 19:12:57;;;;;;;;;;;12.20;80.50;;;;;;5074841;28;19912;-77
2023/05/06 19:15:24;;;;;;;;;;;12.10;79.70;;;;;;5096676;28;19933;-77
2023/05/06 19:17:50;;;;;;;;;;;12.10;80.70;;;;;;5090106;28;20424;-76
2023/05/06 19:20:17;;;;;;;;;;;12.10;80.30;;;;;;5105742;28;19998;-76
2023/05/06 19:22:44;;;;;;;;;;;12.00;80.70;;;;;;5079206;28;19919;-75
2023/05/06 19:25:11;;;;;;;;;;;12.00;80.50;;;;;;5104458;28;20393;-78
2023/05/06 19:27:38;;;;;;;;;;;12.00;80.20;;;;;;5094597;28;20316;-77
2023/05/06 19:30:05;;;;;;;;;;;11.90;80.30;;;;;;5096975;28;19922;-78
2023/05/06 19:32:31;;;;;;;;;;;11.80;80.70;;;;;;5107292;28;19955;-75
2023/05/06 19:35:06;;;;;;;;;;;11.90;80.40;;;;;;5092435;28;19912;-78
2023/05/06 19:37:37;;;;;;;;;;;11.90;80.40;;;;;;5110612;28;19951;-73
2023/05/06 19:40:04;;;;;;;;;;;11.90;80.00;;;;;;5079838;28;19938;-79
2023/05/06 19:42:30;;;;;;;;;;;11.90;79.80;;;;;;5108282;28;19916;-77
2023/05/06 19:44:57;;;;;;;;;;;11.90;79.90;;;;;;5105824;28;20554;-77
2023/05/06 19:47:24;;;;;;;;;;;11.90;79.20;;;;;;5089462;28;20131;-77
2023/05/06 19:49:51;;;;;;;;;;;11.90;79.30;;;;;;5089743;28;19959;-77
2023/05/06 19:52:17;;;;;;;;;;;11.80;79.60;;;;;;5105095;28;19919;-82
2023/05/06 19:54:44;;;;;;;;;;;11.90;79.90;;;;;;5108285;28;19916;-80
2023/05/06 19:57:11;;;;;;;;;;;11.80;79.90;;;;;;5102935;28;19931;-89
2023/05/06 19:59:38;;;;;;;;;;;11.80;80.10;;;;;;5104776;28;19924;-85
2023/05/06 20:02:05;;;;;;;;;;;11.80;80.00;;;;;;5089896;28;19913;-81
2023/05/06 20:04:32;;;;;;;;;;;11.80;81.20;;;;;;5089814;28;20380;-77
2023/05/06 20:06:59;;;;;;;;;;;11.80;81.20;;;;;;5092842;28;20316;-76
2023/05/06 20:09:25;;;;;;;;;;;11.80;81.10;;;;;;5100607;28;19922;-76
2023/05/06 20:11:52;;;;;;;;;;;11.70;81.10;;;;;;5073148;28;19912;-76
2023/05/06 20:14:19;;;;;;;;;;;11.70;80.10;;;;;;5100832;28;19926;-76
2023/05/06 20:16:46;;;;;;;;;;;11.80;80.40;;;;;;5109517;28;19920;-75
2023/05/06 20:19:13;;;;;;;;;;;11.70;80.60;;;;;;5108127;28;19972;-76
2023/05/06 20:21:40;;;;;;;;;;;11.70;80.50;;;;;;5086829;28;20321;-77
2023/05/06 20:24:07;;;;;;;;;;;11.70;80.40;;;;;;5080941;28;19918;-78
2023/05/06 20:26:33;;;;;;;;;;;11.70;80.50;;;;;;5109897;28;20002;-78
2023/05/06 20:29:00;;;;;;;;;;;11.70;80.50;;;;;;5092918;28;19912;-78
2023/05/06 20:31:27;;;;;;;;;;;11.70;80.70;;;;;;5100691;28;19941;-80
2023/05/06 20:33:54;;;;;;;;;;;11.70;80.40;;;;;;5107563;28;19915;-80
2023/05/06 20:36:21;;;;;;;;;;;11.70;80.50;;;;;;5075164;28;20134;-79
2023/05/06 20:38:49;;;;;;;;;;;11.70;81.00;;;;;;5092998;28;19912;-83
2023/05/06 20:41:15;;;;;;;;;;;11.70;80.60;;;;;;5081861;28;20016;-78
2023/05/06 20:43:42;;;;;;;;;;;11.70;81.30;;;;;;5099330;28;20282;-78
2023/05/06 20:46:09;;;;;;;;;;;11.70;81.10;;;;;;5089616;28;19927;-81
2023/05/06 20:48:35;;;;;;;;;;;11.70;80.90;;;;;;5079723;28;19912;-82
2023/05/06 20:51:02;;;;;;;;;;;11.70;80.70;;;;;;5099818;28;19917;-79
2023/05/06 20:53:29;;;;;;;;;;;11.70;81.00;;;;;;5074225;28;19919;-79
2023/05/06 20:55:56;;;;;;;;;;;11.80;80.40;;;;;;5107546;28;20023;-81
